sensor_id;sensor_type;location;lat;lon;timestamp;temperature;humidity
6486;DHT22;3276;48.490;9.222;2023-06-10T00:01:00;16.40;12.50
6486;DHT22;3276;48.490;9.222;2023-06-10T00:03:26;16.40;12.50
6486;DHT22;3276;48.490;9.222;2023-06-10T00:05:52;16.30;12.70
6486;DHT22;3276;48.490;9.222;2023-06-10T00:08:17;16.40;12.90
6486;DHT22;3276;48.490;9.222;2023-06-10T00:10:45;16.40;12.50
6486;DHT22;3276;48.490;9.222;2023-06-10T00:13:10;16.30;12.80
6486;DHT22;3276;48.490;9.222;2023-06-10T00:15:36;16.20;12.70
6486;DHT22;3276;48.490;9.222;2023-06-10T00:18:03;16.10;13.10
6486;DHT22;3276;48.490;9.222;2023-06-10T00:20:29;16.10;13.90
6486;DHT22;3276;48.490;9.222;2023-06-10T00:22:55;16.10;13.90
6486;DHT22;3276;48.490;9.222;2023-06-10T00:25:22;16.00;13.80
6486;DHT22;3276;48.490;9.222;2023-06-10T00:27:47;15.90;13.90
6486;DHT22;3276;48.490;9.222;2023-06-10T00:30:13;15.90;14.60
6486;DHT22;3276;48.490;9.222;2023-06-10T00:32:39;15.90;14.60
6486;DHT22;3276;48.490;9.222;2023-06-10T00:35:05;15.80;15.10
6486;DHT22;3276;48.490;9.222;2023-06-10T00:37:32;15.80;15.70
6486;DHT22;3276;48.490;9.222;2023-06-10T00:39:58;15.80;15.20
6486;DHT22;3276;48.490;9.222;2023-06-10T00:42:23;15.80;15.40
6486;DHT22;3276;48.490;9.222;2023-06-10T00:44:50;15.80;15.80
6486;DHT22;3276;48.490;9.222;2023-06-10T00:47:16;15.70;16.30
6486;DHT22;3276;48.490;9.222;2023-06-10T00:49:42;15.60;16.80
6486;DHT22;3276;48.490;9.222;2023-06-10T00:52:08;15.60;16.90
6486;DHT22;3276;48.490;9.222;2023-06-10T00:54:34;15.60;16.60
6486;DHT22;3276;48.490;9.222;2023-06-10T00:57:01;15.60;16.30
6486;DHT22;3276;48.490;9.222;2023-06-10T00:59:30;15.60;16.30
6486;DHT22;3276;48.490;9.222;2023-06-10T01:01:59;15.60;17.20
6486;DHT22;3276;48.490;9.222;2023-06-10T01:04:26;15.60;17.10
6486;DHT22;3276;48.490;9.222;2023-06-10T01:07:19;15.50;17.80
6486;DHT22;3276;48.490;9.222;2023-06-10T01:13:09;15.50;17.80
6486;DHT22;3276;48.490;9.222;2023-06-10T01:15:37;15.40;18.10
6486;DHT22;3276;48.490;9.222;2023-06-10T01:18:04;15.40;18.60
6486;DHT22;3276;48.490;9.222;2023-06-10T01:20:31;15.40;18.50
6486;DHT22;3276;48.490;9.222;2023-06-10T01:23:01;15.30;18.60
6486;DHT22;3276;48.490;9.222;2023-06-10T01:25:28;15.20;19.30
6486;DHT22;3276;48.490;9.222;2023-06-10T01:28:17;15.20;19.70
6486;DHT22;3276;48.490;9.222;2023-06-10T01:33:39;15.20;19.30
6486;DHT22;3276;48.490;9.222;2023-06-10T01:36:06;15.20;20.00
6486;DHT22;3276;48.490;9.222;2023-06-10T01:38:42;15.20;19.60
6486;DHT22;3276;48.490;9.222;2023-06-10T01:41:09;15.10;19.70
6486;DHT22;3276;48.490;9.222;2023-06-10T01:43:38;15.00;20.20
6486;DHT22;3276;48.490;9.222;2023-06-10T01:46:03;15.10;20.60
6486;DHT22;3276;48.490;9.222;2023-06-10T01:48:29;15.00;20.40
6486;DHT22;3276;48.490;9.222;2023-06-10T01:50:54;15.00;21.30
6486;DHT22;3276;48.490;9.222;2023-06-10T01:53:22;14.90;21.70
6486;DHT22;3276;48.490;9.222;2023-06-10T01:55:47;14.90;21.70
6486;DHT22;3276;48.490;9.222;2023-06-10T01:58:13;14.80;22.50
6486;DHT22;3276;48.490;9.222;2023-06-10T02:00:39;14.80;22.20
6486;DHT22;3276;48.490;9.222;2023-06-10T02:03:04;14.70;22.90
6486;DHT22;3276;48.490;9.222;2023-06-10T02:05:30;14.80;23.20
6486;DHT22;3276;48.490;9.222;2023-06-10T02:07:55;14.70;23.90
6486;DHT22;3276;48.490;9.222;2023-06-10T02:10:21;14.60;24.60
6486;DHT22;3276;48.490;9.222;2023-06-10T02:12:47;14.60;25.50
6486;DHT22;3276;48.490;9.222;2023-06-10T02:15:12;14.60;25.80
6486;DHT22;3276;48.490;9.222;2023-06-10T02:17:38;14.50;25.70
6486;DHT22;3276;48.490;9.222;2023-06-10T02:20:05;14.50;25.70
6486;DHT22;3276;48.490;9.222;2023-06-10T02:22:32;14.50;25.70
6486;DHT22;3276;48.490;9.222;2023-06-10T02:24:58;14.50;25.70
6486;DHT22;3276;48.490;9.222;2023-06-10T02:27:23;14.50;25.70
6486;DHT22;3276;48.490;9.222;2023-06-10T02:29:49;14.50;25.70
6486;DHT22;3276;48.490;9.222;2023-06-10T02:32:15;14.50;26.00
6486;DHT22;3276;48.490;9.222;2023-06-10T02:34:41;14.40;27.80
6486;DHT22;3276;48.490;9.222;2023-06-10T02:37:08;14.40;28.80
6486;DHT22;3276;48.490;9.222;2023-06-10T02:39:33;14.30;28.90
6486;DHT22;3276;48.490;9.222;2023-06-10T02:41:59;14.30;29.70
6486;DHT22;3276;48.490;9.222;2023-06-10T02:44:25;14.20;29.60
6486;DHT22;3276;48.490;9.222;2023-06-10T02:46:50;14.20;29.70
6486;DHT22;3276;48.490;9.222;2023-06-10T02:49:16;14.20;29.70
6486;DHT22;3276;48.490;9.222;2023-06-10T02:51:41;14.20;29.60
6486;DHT22;3276;48.490;9.222;2023-06-10T02:54:07;14.30;28.90
6486;DHT22;3276;48.490;9.222;2023-06-10T02:56:33;14.30;29.70
6486;DHT22;3276;48.490;9.222;2023-06-10T02:58:58;14.30;29.70
6486;DHT22;3276;48.490;9.222;2023-06-10T03:01:24;14.30;30.80
6486;DHT22;3276;48.490;9.222;2023-06-10T03:03:50;14.20;29.70
6486;DHT22;3276;48.490;9.222;2023-06-10T03:06:15;14.20;30.30
6486;DHT22;3276;48.490;9.222;2023-06-10T03:08:41;14.10;29.70
6486;DHT22;3276;48.490;9.222;2023-06-10T03:11:07;14.10;30.30
6486;DHT22;3276;48.490;9.222;2023-06-10T03:13:32;14.00;31.20
6486;DHT22;3276;48.490;9.222;2023-06-10T03:15:58;14.00;30.60
6486;DHT22;3276;48.490;9.222;2023-06-10T03:18:27;14.00;30.90
6486;DHT22;3276;48.490;9.222;2023-06-10T03:20:54;14.00;33.40
6486;DHT22;3276;48.490;9.222;2023-06-10T03:23:20;14.10;32.10
6486;DHT22;3276;48.490;9.222;2023-06-10T03:25:46;14.00;31.90
6486;DHT22;3276;48.490;9.222;2023-06-10T03:28:11;14.00;32.80
6486;DHT22;3276;48.490;9.222;2023-06-10T03:30:37;14.00;32.30
6486;DHT22;3276;48.490;9.222;2023-06-10T03:33:02;14.00;32.10
6486;DHT22;3276;48.490;9.222;2023-06-10T03:35:29;13.90;32.20
6486;DHT22;3276;48.490;9.222;2023-06-10T03:37:55;13.90;32.30
6486;DHT22;3276;48.490;9.222;2023-06-10T03:40:20;13.90;32.90
6486;DHT22;3276;48.490;9.222;2023-06-10T03:42:46;13.90;34.40
6486;DHT22;3276;48.490;9.222;2023-06-10T03:45:12;14.00;32.20
6486;DHT22;3276;48.490;9.222;2023-06-10T03:47:38;14.00;32.10
6486;DHT22;3276;48.490;9.222;2023-06-10T03:50:06;13.90;31.60
6486;DHT22;3276;48.490;9.222;2023-06-10T03:52:33;13.90;31.80
6486;DHT22;3276;48.490;9.222;2023-06-10T03:54:59;13.90;30.80
6486;DHT22;3276;48.490;9.222;2023-06-10T03:57:25;13.90;30.60
6486;DHT22;3276;48.490;9.222;2023-06-10T03:59:51;13.90;30.30
6486;DHT22;3276;48.490;9.222;2023-06-10T04:02:16;14.00;29.90
6486;DHT22;3276;48.490;9.222;2023-06-10T04:04:43;14.10;30.30
6486;DHT22;3276;48.490;9.222;2023-06-10T04:07:08;14.10;31.00
6486;DHT22;3276;48.490;9.222;2023-06-10T04:09:35;14.20;31.50
6486;DHT22;3276;48.490;9.222;2023-06-10T04:12:01;14.20;31.10
6486;DHT22;3276;48.490;9.222;2023-06-10T04:14:27;14.20;30.40
6486;DHT22;3276;48.490;9.222;2023-06-10T04:16:53;14.30;30.50
6486;DHT22;3276;48.490;9.222;2023-06-10T04:19:18;14.30;30.30
6486;DHT22;3276;48.490;9.222;2023-06-10T04:21:45;14.30;30.10
6486;DHT22;3276;48.490;9.222;2023-06-10T04:24:10;14.30;30.60
6486;DHT22;3276;48.490;9.222;2023-06-10T04:26:36;14.40;29.90
6486;DHT22;3276;48.490;9.222;2023-06-10T04:29:02;14.40;29.80
6486;DHT22;3276;48.490;9.222;2023-06-10T04:31:27;14.30;30.20
6486;DHT22;3276;48.490;9.222;2023-06-10T04:33:53;14.40;30.00
6486;DHT22;3276;48.490;9.222;2023-06-10T04:36:19;14.50;29.90
6486;DHT22;3276;48.490;9.222;2023-06-10T04:38:45;14.50;29.90
6486;DHT22;3276;48.490;9.222;2023-06-10T04:41:11;14.50;29.90
6486;DHT22;3276;48.490;9.222;2023-06-10T04:43:36;14.60;29.30
6486;DHT22;3276;48.490;9.222;2023-06-10T04:46:02;14.70;29.20
6486;DHT22;3276;48.490;9.222;2023-06-10T04:48:28;14.80;28.10
6486;DHT22;3276;48.490;9.222;2023-06-10T04:50:53;14.90;27.90
6486;DHT22;3276;48.490;9.222;2023-06-10T04:53:19;15.00;27.90
6486;DHT22;3276;48.490;9.222;2023-06-10T04:55:45;15.10;27.30
6486;DHT22;3276;48.490;9.222;2023-06-10T04:58:11;15.10;27.00
6486;DHT22;3276;48.490;9.222;2023-06-10T05:00:37;15.20;27.10
6486;DHT22;3276;48.490;9.222;2023-06-10T05:03:03;15.30;26.70
6486;DHT22;3276;48.490;9.222;2023-06-10T05:05:28;15.40;26.30
6486;DHT22;3276;48.490;9.222;2023-06-10T05:07:54;15.50;26.10
6486;DHT22;3276;48.490;9.222;2023-06-10T05:10:19;15.60;26.10
6486;DHT22;3276;48.490;9.222;2023-06-10T05:12:45;15.80;24.80
6486;DHT22;3276;48.490;9.222;2023-06-10T05:15:11;15.90;23.70
6486;DHT22;3276;48.490;9.222;2023-06-10T05:17:36;16.00;24.20
6486;DHT22;3276;48.490;9.222;2023-06-10T05:20:03;16.10;23.30
6486;DHT22;3276;48.490;9.222;2023-06-10T05:22:29;16.20;22.60
6486;DHT22;3276;48.490;9.222;2023-06-10T05:24:54;16.40;22.70
6486;DHT22;3276;48.490;9.222;2023-06-10T05:27:20;16.50;21.50
6486;DHT22;3276;48.490;9.222;2023-06-10T05:29:46;16.70;20.50
6486;DHT22;3276;48.490;9.222;2023-06-10T05:32:12;16.80;19.50
6486;DHT22;3276;48.490;9.222;2023-06-10T05:34:37;17.00;19.30
6486;DHT22;3276;48.490;9.222;2023-06-10T05:37:04;17.20;18.50
6486;DHT22;3276;48.490;9.222;2023-06-10T05:39:30;17.50;18.30
6486;DHT22;3276;48.490;9.222;2023-06-10T05:41:55;17.80;16.30
6486;DHT22;3276;48.490;9.222;2023-06-10T05:44:21;18.40;15.50
6486;DHT22;3276;48.490;9.222;2023-06-10T05:46:47;18.80;12.30
6486;DHT22;3276;48.490;9.222;2023-06-10T05:49:12;19.00;11.40
6486;DHT22;3276;48.490;9.222;2023-06-10T05:51:38;19.40;10.70
6486;DHT22;3276;48.490;9.222;2023-06-10T05:54:03;20.60;11.60
6486;DHT22;3276;48.490;9.222;2023-06-10T05:56:29;23.00;5.70
6486;DHT22;3276;48.490;9.222;2023-06-10T05:58:55;25.00;2.50
6486;DHT22;3276;48.490;9.222;2023-06-10T06:01:21;26.60;1.00
6486;DHT22;3276;48.490;9.222;2023-06-10T06:03:46;28.00;1.00
6486;DHT22;3276;48.490;9.222;2023-06-10T06:06:12;29.10;1.00
6486;DHT22;3276;48.490;9.222;2023-06-10T06:08:38;30.90;1.00
6486;DHT22;3276;48.490;9.222;2023-06-10T06:11:03;32.60;1.00
6486;DHT22;3276;48.490;9.222;2023-06-10T06:13:29;33.00;1.00
6486;DHT22;3276;48.490;9.222;2023-06-10T06:15:54;33.40;1.00
6486;DHT22;3276;48.490;9.222;2023-06-10T06:18:20;34.90;1.00
6486;DHT22;3276;48.490;9.222;2023-06-10T06:20:45;34.90;1.00
6486;DHT22;3276;48.490;9.222;2023-06-10T06:23:11;35.90;1.00
6486;DHT22;3276;48.490;9.222;2023-06-10T06:25:37;36.60;1.00
6486;DHT22;3276;48.490;9.222;2023-06-10T06:28:07;37.50;1.00
6486;DHT22;3276;48.490;9.222;2023-06-10T06:30:36;38.00;1.00
6486;DHT22;3276;48.490;9.222;2023-06-10T06:33:02;38.30;1.00
6486;DHT22;3276;48.490;9.222;2023-06-10T06:35:27;38.70;1.00
6486;DHT22;3276;48.490;9.222;2023-06-10T06:37:53;38.60;1.00
6486;DHT22;3276;48.490;9.222;2023-06-10T06:40:18;37.90;1.00
6486;DHT22;3276;48.490;9.222;2023-06-10T06:42:44;38.10;1.00
6486;DHT22;3276;48.490;9.222;2023-06-10T06:45:10;38.60;1.00
6486;DHT22;3276;48.490;9.222;2023-06-10T06:47:36;38.40;1.00
6486;DHT22;3276;48.490;9.222;2023-06-10T06:50:01;39.00;1.00
6486;DHT22;3276;48.490;9.222;2023-06-10T06:52:28;38.00;1.00
6486;DHT22;3276;48.490;9.222;2023-06-10T06:54:53;38.70;1.00
6486;DHT22;3276;48.490;9.222;2023-06-10T06:57:19;38.00;1.00
6486;DHT22;3276;48.490;9.222;2023-06-10T06:59:45;38.80;1.00
6486;DHT22;3276;48.490;9.222;2023-06-10T07:02:10;37.60;1.00
6486;DHT22;3276;48.490;9.222;2023-06-10T07:04:36;37.20;1.00
6486;DHT22;3276;48.490;9.222;2023-06-10T07:07:02;36.50;1.00
6486;DHT22;3276;48.490;9.222;2023-06-10T07:09:28;37.50;1.00
6486;DHT22;3276;48.490;9.222;2023-06-10T07:11:53;37.30;1.00
6486;DHT22;3276;48.490;9.222;2023-06-10T07:14:19;37.80;1.00
6486;DHT22;3276;48.490;9.222;2023-06-10T07:16:44;38.60;1.00
6486;DHT22;3276;48.490;9.222;2023-06-10T07:19:11;38.20;1.00
6486;DHT22;3276;48.490;9.222;2023-06-10T07:21:36;38.80;1.00
6486;DHT22;3276;48.490;9.222;2023-06-10T07:24:03;39.00;1.00
6486;DHT22;3276;48.490;9.222;2023-06-10T07:26:29;39.00;1.00
6486;DHT22;3276;48.490;9.222;2023-06-10T07:28:54;39.00;1.00
6486;DHT22;3276;48.490;9.222;2023-06-10T07:31:20;39.30;1.00
6486;DHT22;3276;48.490;9.222;2023-06-10T07:33:46;39.30;1.00
6486;DHT22;3276;48.490;9.222;2023-06-10T07:36:12;39.50;1.00
6486;DHT22;3276;48.490;9.222;2023-06-10T07:38:38;39.20;1.00
6486;DHT22;3276;48.490;9.222;2023-06-10T07:41:03;40.00;1.00
6486;DHT22;3276;48.490;9.222;2023-06-10T07:43:29;39.60;1.00
6486;DHT22;3276;48.490;9.222;2023-06-10T07:45:55;39.10;1.00
6486;DHT22;3276;48.490;9.222;2023-06-10T07:48:20;39.00;1.00
6486;DHT22;3276;48.490;9.222;2023-06-10T07:50:46;38.30;1.00
6486;DHT22;3276;48.490;9.222;2023-06-10T07:53:11;38.90;1.00
6486;DHT22;3276;48.490;9.222;2023-06-10T07:55:37;38.70;1.00
6486;DHT22;3276;48.490;9.222;2023-06-10T07:58:02;38.70;1.00
6486;DHT22;3276;48.490;9.222;2023-06-10T08:00:28;39.70;1.00
6486;DHT22;3276;48.490;9.222;2023-06-10T08:02:53;38.60;1.00
6486;DHT22;3276;48.490;9.222;2023-06-10T08:05:19;39.20;1.00
6486;DHT22;3276;48.490;9.222;2023-06-10T08:07:45;38.80;1.00
6486;DHT22;3276;48.490;9.222;2023-06-10T08:10:11;37.90;1.00
6486;DHT22;3276;48.490;9.222;2023-06-10T08:12:36;37.80;1.00
6486;DHT22;3276;48.490;9.222;2023-06-10T08:15:02;38.60;1.00
6486;DHT22;3276;48.490;9.222;2023-06-10T08:17:31;38.70;1.00
6486;DHT22;3276;48.490;9.222;2023-06-10T08:19:56;37.90;1.00
6486;DHT22;3276;48.490;9.222;2023-06-10T08:22:22;37.50;1.00
6486;DHT22;3276;48.490;9.222;2023-06-10T08:24:48;38.30;1.00
6486;DHT22;3276;48.490;9.222;2023-06-10T08:27:13;38.30;1.00
6486;DHT22;3276;48.490;9.222;2023-06-10T08:29:39;38.50;1.00
6486;DHT22;3276;48.490;9.222;2023-06-10T08:32:05;38.70;1.00
6486;DHT22;3276;48.490;9.222;2023-06-10T08:34:33;38.40;1.00
6486;DHT22;3276;48.490;9.222;2023-06-10T08:36:59;38.20;1.00
6486;DHT22;3276;48.490;9.222;2023-06-10T08:39:25;38.30;1.00
6486;DHT22;3276;48.490;9.222;2023-06-10T08:44:36;37.90;1.00
6486;DHT22;3276;48.490;9.222;2023-06-10T08:47:08;37.60;1.00
6486;DHT22;3276;48.490;9.222;2023-06-10T08:49:43;38.90;1.00
6486;DHT22;3276;48.490;9.222;2023-06-10T08:52:14;39.20;1.00
6486;DHT22;3276;48.490;9.222;2023-06-10T08:54:43;39.30;1.00
6486;DHT22;3276;48.490;9.222;2023-06-10T08:57:12;39.10;1.00
6486;DHT22;3276;48.490;9.222;2023-06-10T08:59:38;38.50;1.00
6486;DHT22;3276;48.490;9.222;2023-06-10T09:02:06;38.20;1.00
6486;DHT22;3276;48.490;9.222;2023-06-10T09:04:32;35.00;1.00
6486;DHT22;3276;48.490;9.222;2023-06-10T09:06:59;36.10;1.00
6486;DHT22;3276;48.490;9.222;2023-06-10T09:09:26;36.50;1.00
6486;DHT22;3276;48.490;9.222;2023-06-10T09:11:53;37.60;1.00
6486;DHT22;3276;48.490;9.222;2023-06-10T09:14:19;37.40;1.00
6486;DHT22;3276;48.490;9.222;2023-06-10T09:16:44;36.80;1.00
6486;DHT22;3276;48.490;9.222;2023-06-10T09:19:12;34.70;1.00
6486;DHT22;3276;48.490;9.222;2023-06-10T09:21:38;32.70;1.00
6486;DHT22;3276;48.490;9.222;2023-06-10T09:24:05;30.90;1.00
6486;DHT22;3276;48.490;9.222;2023-06-10T09:26:30;29.50;1.00
6486;DHT22;3276;48.490;9.222;2023-06-10T09:29:07;29.10;1.00
6486;DHT22;3276;48.490;9.222;2023-06-10T09:31:35;28.60;1.00
6486;DHT22;3276;48.490;9.222;2023-06-10T09:34:06;28.30;1.00
6486;DHT22;3276;48.490;9.222;2023-06-10T09:36:33;27.90;1.00
6486;DHT22;3276;48.490;9.222;2023-06-10T09:38:59;27.70;1.00
6486;DHT22;3276;48.490;9.222;2023-06-10T09:41:32;27.70;1.00
6486;DHT22;3276;48.490;9.222;2023-06-10T09:43:58;27.30;1.00
6486;DHT22;3276;48.490;9.222;2023-06-10T09:46:25;27.00;1.00
6486;DHT22;3276;48.490;9.222;2023-06-10T09:48:57;26.90;1.00
6486;DHT22;3276;48.490;9.222;2023-06-10T09:51:23;26.80;1.00
6486;DHT22;3276;48.490;9.222;2023-06-10T09:53:50;26.90;1.00
6486;DHT22;3276;48.490;9.222;2023-06-10T09:56:16;27.10;1.00
6486;DHT22;3276;48.490;9.222;2023-06-10T09:58:42;27.30;1.00
6486;DHT22;3276;48.490;9.222;2023-06-10T10:01:10;27.40;1.00
6486;DHT22;3276;48.490;9.222;2023-06-10T10:03:47;27.30;1.00
6486;DHT22;3276;48.490;9.222;2023-06-10T10:06:14;27.30;1.00
6486;DHT22;3276;48.490;9.222;2023-06-10T10:08:40;27.10;1.00
6486;DHT22;3276;48.490;9.222;2023-06-10T10:11:06;26.90;1.00
6486;DHT22;3276;48.490;9.222;2023-06-10T10:13:34;26.90;1.00
6486;DHT22;3276;48.490;9.222;2023-06-10T10:16:04;26.90;1.00
6486;DHT22;3276;48.490;9.222;2023-06-10T10:18:31;26.80;1.00
6486;DHT22;3276;48.490;9.222;2023-06-10T10:21:01;26.90;1.00
6486;DHT22;3276;48.490;9.222;2023-06-10T10:24:09;27.40;1.00
6486;DHT22;3276;48.490;9.222;2023-06-10T10:26:38;27.50;1.00
6486;DHT22;3276;48.490;9.222;2023-06-10T10:29:14;27.60;1.00
6486;DHT22;3276;48.490;9.222;2023-06-10T10:31:43;27.40;1.00
6486;DHT22;3276;48.490;9.222;2023-06-10T10:34:21;27.00;1.00
6486;DHT22;3276;48.490;9.222;2023-06-10T10:36:47;27.00;1.00
6486;DHT22;3276;48.490;9.222;2023-06-10T10:39:14;26.90;1.00
6486;DHT22;3276;48.490;9.222;2023-06-10T10:41:40;26.70;1.00
6486;DHT22;3276;48.490;9.222;2023-06-10T10:44:07;26.80;1.00
6486;DHT22;3276;48.490;9.222;2023-06-10T10:46:43;26.80;1.00
6486;DHT22;3276;48.490;9.222;2023-06-10T10:49:11;26.90;1.00
6486;DHT22;3276;48.490;9.222;2023-06-10T10:51:37;27.30;1.00
6486;DHT22;3276;48.490;9.222;2023-06-10T10:54:28;27.60;1.00
6486;DHT22;3276;48.490;9.222;2023-06-10T10:59:54;27.50;1.00
6486;DHT22;3276;48.490;9.222;2023-06-10T11:02:41;27.60;1.00
6486;DHT22;3276;48.490;9.222;2023-06-10T11:05:15;27.60;1.00
6486;DHT22;3276;48.490;9.222;2023-06-10T11:07:52;27.50;1.00
6486;DHT22;3276;48.490;9.222;2023-06-10T11:10:32;26.90;1.00
6486;DHT22;3276;48.490;9.222;2023-06-10T11:12:58;26.70;1.00
6486;DHT22;3276;48.490;9.222;2023-06-10T11:15:27;26.70;1.00
6486;DHT22;3276;48.490;9.222;2023-06-10T11:21:03;27.80;1.00
6486;DHT22;3276;48.490;9.222;2023-06-10T11:23:34;27.80;1.00
6486;DHT22;3276;48.490;9.222;2023-06-10T11:26:14;27.80;1.00
6486;DHT22;3276;48.490;9.222;2023-06-10T11:28:41;27.60;1.00
6486;DHT22;3276;48.490;9.222;2023-06-10T11:31:08;27.50;1.00
6486;DHT22;3276;48.490;9.222;2023-06-10T11:33:38;27.20;1.00
6486;DHT22;3276;48.490;9.222;2023-06-10T11:36:07;27.10;1.00
6486;DHT22;3276;48.490;9.222;2023-06-10T11:38:33;27.50;1.00
6486;DHT22;3276;48.490;9.222;2023-06-10T11:40:59;28.00;1.00
6486;DHT22;3276;48.490;9.222;2023-06-10T11:43:25;28.40;1.00
6486;DHT22;3276;48.490;9.222;2023-06-10T11:45:54;28.30;1.00
6486;DHT22;3276;48.490;9.222;2023-06-10T11:48:21;28.10;1.00
6486;DHT22;3276;48.490;9.222;2023-06-10T11:50:46;28.00;1.00
6486;DHT22;3276;48.490;9.222;2023-06-10T11:53:12;27.90;1.00
6486;DHT22;3276;48.490;9.222;2023-06-10T11:58:18;27.60;1.00
6486;DHT22;3276;48.490;9.222;2023-06-10T12:00:47;27.40;1.00
6486;DHT22;3276;48.490;9.222;2023-06-10T12:03:13;27.30;1.00
6486;DHT22;3276;48.490;9.222;2023-06-10T12:05:39;27.40;1.00
6486;DHT22;3276;48.490;9.222;2023-06-10T12:08:09;27.60;1.00
6486;DHT22;3276;48.490;9.222;2023-06-10T12:10:40;27.90;1.00
6486;DHT22;3276;48.490;9.222;2023-06-10T12:13:06;28.10;1.00
6486;DHT22;3276;48.490;9.222;2023-06-10T12:15:33;28.20;1.00
6486;DHT22;3276;48.490;9.222;2023-06-10T12:17:58;28.20;1.00
6486;DHT22;3276;48.490;9.222;2023-06-10T12:20:26;28.10;1.00
6486;DHT22;3276;48.490;9.222;2023-06-10T12:22:53;28.00;1.00
6486;DHT22;3276;48.490;9.222;2023-06-10T12:25:24;27.90;1.00
6486;DHT22;3276;48.490;9.222;2023-06-10T12:27:56;27.90;1.00
6486;DHT22;3276;48.490;9.222;2023-06-10T12:30:25;28.20;1.00
6486;DHT22;3276;48.490;9.222;2023-06-10T12:32:52;28.30;1.00
6486;DHT22;3276;48.490;9.222;2023-06-10T12:35:25;28.20;1.00
6486;DHT22;3276;48.490;9.222;2023-06-10T12:37:55;28.30;1.00
6486;DHT22;3276;48.490;9.222;2023-06-10T12:40:32;28.50;1.00
6486;DHT22;3276;48.490;9.222;2023-06-10T12:42:59;28.60;1.00
6486;DHT22;3276;48.490;9.222;2023-06-10T12:45:35;28.90;1.00
6486;DHT22;3276;48.490;9.222;2023-06-10T12:48:31;29.10;1.00
6486;DHT22;3276;48.490;9.222;2023-06-10T12:50:58;29.40;1.00
6486;DHT22;3276;48.490;9.222;2023-06-10T12:53:24;29.20;1.00
6486;DHT22;3276;48.490;9.222;2023-06-10T12:55:52;28.90;1.00
6486;DHT22;3276;48.490;9.222;2023-06-10T12:58:19;28.30;1.00
6486;DHT22;3276;48.490;9.222;2023-06-10T13:00:45;27.90;1.00
6486;DHT22;3276;48.490;9.222;2023-06-10T13:03:10;27.70;1.00
6486;DHT22;3276;48.490;9.222;2023-06-10T13:05:37;27.80;1.00
6486;DHT22;3276;48.490;9.222;2023-06-10T13:08:04;28.00;1.00
6486;DHT22;3276;48.490;9.222;2023-06-10T13:10:30;28.30;1.00
6486;DHT22;3276;48.490;9.222;2023-06-10T13:12:56;28.70;1.00
6486;DHT22;3276;48.490;9.222;2023-06-10T13:15:22;28.80;1.00
6486;DHT22;3276;48.490;9.222;2023-06-10T13:17:48;28.80;1.00
6486;DHT22;3276;48.490;9.222;2023-06-10T13:20:14;29.00;1.00
6486;DHT22;3276;48.490;9.222;2023-06-10T13:22:41;29.30;1.00
6486;DHT22;3276;48.490;9.222;2023-06-10T13:25:07;29.60;1.00
6486;DHT22;3276;48.490;9.222;2023-06-10T13:27:34;29.50;1.00
6486;DHT22;3276;48.490;9.222;2023-06-10T13:30:00;29.40;1.00
6486;DHT22;3276;48.490;9.222;2023-06-10T13:32:25;29.30;1.00
6486;DHT22;3276;48.490;9.222;2023-06-10T13:34:51;29.00;1.00
6486;DHT22;3276;48.490;9.222;2023-06-10T13:37:18;28.50;1.00
6486;DHT22;3276;48.490;9.222;2023-06-10T13:39:44;28.20;1.00
6486;DHT22;3276;48.490;9.222;2023-06-10T13:42:12;28.00;1.00
6486;DHT22;3276;48.490;9.222;2023-06-10T13:44:38;27.90;1.00
6486;DHT22;3276;48.490;9.222;2023-06-10T13:47:03;27.90;1.00
6486;DHT22;3276;48.490;9.222;2023-06-10T13:49:29;28.00;1.00
6486;DHT22;3276;48.490;9.222;2023-06-10T13:51:55;28.00;1.00
6486;DHT22;3276;48.490;9.222;2023-06-10T13:54:20;28.10;1.00
6486;DHT22;3276;48.490;9.222;2023-06-10T13:56:47;28.10;1.00
6486;DHT22;3276;48.490;9.222;2023-06-10T13:59:12;28.50;1.00
6486;DHT22;3276;48.490;9.222;2023-06-10T14:01:38;28.90;1.00
6486;DHT22;3276;48.490;9.222;2023-06-10T14:04:04;29.30;1.00
6486;DHT22;3276;48.490;9.222;2023-06-10T14:06:30;29.40;1.00
6486;DHT22;3276;48.490;9.222;2023-06-10T14:08:57;29.30;1.00
6486;DHT22;3276;48.490;9.222;2023-06-10T14:11:23;29.20;1.00
6486;DHT22;3276;48.490;9.222;2023-06-10T14:13:48;29.10;1.00
6486;DHT22;3276;48.490;9.222;2023-06-10T14:16:14;29.20;1.00
6486;DHT22;3276;48.490;9.222;2023-06-10T14:18:40;29.30;1.00
6486;DHT22;3276;48.490;9.222;2023-06-10T14:21:05;29.20;1.00
6486;DHT22;3276;48.490;9.222;2023-06-10T14:23:31;29.10;1.00
6486;DHT22;3276;48.490;9.222;2023-06-10T14:25:56;29.30;1.00
6486;DHT22;3276;48.490;9.222;2023-06-10T14:28:22;29.40;1.00
6486;DHT22;3276;48.490;9.222;2023-06-10T14:30:49;29.60;1.00
6486;DHT22;3276;48.490;9.222;2023-06-10T14:33:15;29.90;1.00
6486;DHT22;3276;48.490;9.222;2023-06-10T14:35:40;29.80;1.00
6486;DHT22;3276;48.490;9.222;2023-06-10T14:38:06;29.40;1.00
6486;DHT22;3276;48.490;9.222;2023-06-10T14:40:31;29.40;1.00
6486;DHT22;3276;48.490;9.222;2023-06-10T14:42:57;29.60;1.00
6486;DHT22;3276;48.490;9.222;2023-06-10T14:45:23;30.10;1.00
6486;DHT22;3276;48.490;9.222;2023-06-10T14:47:50;30.20;1.00
6486;DHT22;3276;48.490;9.222;2023-06-10T14:50:16;29.70;1.00
6486;DHT22;3276;48.490;9.222;2023-06-10T14:52:41;29.50;1.00
6486;DHT22;3276;48.490;9.222;2023-06-10T14:55:07;29.00;1.00
6486;DHT22;3276;48.490;9.222;2023-06-10T14:57:33;28.60;1.00
6486;DHT22;3276;48.490;9.222;2023-06-10T14:59:58;28.20;1.00
6486;DHT22;3276;48.490;9.222;2023-06-10T15:02:24;27.70;1.00
6486;DHT22;3276;48.490;9.222;2023-06-10T15:04:50;27.40;1.00
6486;DHT22;3276;48.490;9.222;2023-06-10T15:07:16;27.30;1.00
6486;DHT22;3276;48.490;9.222;2023-06-10T15:09:43;27.40;1.00
6486;DHT22;3276;48.490;9.222;2023-06-10T15:12:08;27.50;1.00
6486;DHT22;3276;48.490;9.222;2023-06-10T15:14:34;27.70;1.00
6486;DHT22;3276;48.490;9.222;2023-06-10T15:17:00;28.10;1.00
6486;DHT22;3276;48.490;9.222;2023-06-10T15:19:26;28.30;1.00
6486;DHT22;3276;48.490;9.222;2023-06-10T15:21:52;28.30;1.00
6486;DHT22;3276;48.490;9.222;2023-06-10T15:24:18;28.30;1.00
6486;DHT22;3276;48.490;9.222;2023-06-10T15:26:43;28.10;1.00
6486;DHT22;3276;48.490;9.222;2023-06-10T15:29:09;27.90;1.00
6486;DHT22;3276;48.490;9.222;2023-06-10T15:31:35;27.70;1.00
6486;DHT22;3276;48.490;9.222;2023-06-10T15:34:00;27.50;1.00
6486;DHT22;3276;48.490;9.222;2023-06-10T15:36:26;27.30;1.00
6486;DHT22;3276;48.490;9.222;2023-06-10T15:38:53;27.10;1.00
6486;DHT22;3276;48.490;9.222;2023-06-10T15:41:19;27.00;1.00
6486;DHT22;3276;48.490;9.222;2023-06-10T15:43:47;27.00;1.00
6486;DHT22;3276;48.490;9.222;2023-06-10T15:46:13;27.10;1.00
6486;DHT22;3276;48.490;9.222;2023-06-10T15:48:38;27.10;1.00
6486;DHT22;3276;48.490;9.222;2023-06-10T15:51:04;27.20;1.00
6486;DHT22;3276;48.490;9.222;2023-06-10T15:53:29;27.20;1.00
6486;DHT22;3276;48.490;9.222;2023-06-10T15:55:55;27.40;1.00
6486;DHT22;3276;48.490;9.222;2023-06-10T15:58:20;27.40;1.00
6486;DHT22;3276;48.490;9.222;2023-06-10T16:00:46;27.40;1.00
6486;DHT22;3276;48.490;9.222;2023-06-10T16:03:12;27.40;1.00
6486;DHT22;3276;48.490;9.222;2023-06-10T16:05:37;27.30;1.00
6486;DHT22;3276;48.490;9.222;2023-06-10T16:08:03;27.30;1.00
6486;DHT22;3276;48.490;9.222;2023-06-10T16:10:28;27.30;1.00
6486;DHT22;3276;48.490;9.222;2023-06-10T16:12:54;27.30;1.00
6486;DHT22;3276;48.490;9.222;2023-06-10T16:15:20;27.20;1.00
6486;DHT22;3276;48.490;9.222;2023-06-10T16:17:46;27.20;1.00
6486;DHT22;3276;48.490;9.222;2023-06-10T16:20:12;27.20;1.00
6486;DHT22;3276;48.490;9.222;2023-06-10T16:22:37;27.10;1.00
6486;DHT22;3276;48.490;9.222;2023-06-10T16:25:03;27.10;1.00
6486;DHT22;3276;48.490;9.222;2023-06-10T16:27:29;27.10;1.00